LCPH/PFO METAR and TAF weather

Enter ICAO airport designator
Station Type Date Time Source
LCPH METAR 2021/07/29 03:00 UTC NOAA

LCPH 290300Z 01005KT 330V030 CAVOK 24/13 Q1003


Station Type Date Time Source
LCPH Decoded METAR 2021/07/29 03:00 UTC NOAA

Paphos Airport, Cyprus (LCPH) 34-43N 032-29E 8M
Jul 28, 2021 - 11:00 PM EDT / 2021.07.29 0300 UTC
Wind: from the N (010 degrees) at 6 MPH (5 KT) (direction variable):0
Visibility: greater than 7 mile(s):0
Temperature: 75 F (24 C)
Dew Point: 55 F (13 C)
Relative Humidity: 50%
Pressure (altimeter): 29.62 in. Hg (1003 hPa)
ob: LCPH 290300Z 01005KT 330V030 CAVOK 24/13 Q1003
cycle: 3

Station Type Date Time Source
LCPH TAF 2021/07/28 18:30 UTC NOAA

TAF LCPH 281730Z 2818/2918 31010KT 9999 FEW025
BECMG 2820/2823 01007KT
BECMG 2905/2908 15012KT
BECMG 2909/2912 28012KT

Example: see airport list